Ashcamp, KY

03:38 AM EDT em 26 de Outubro de 2014 (GMT -0400)
Tazewell County | Change Station
CLOSE
Current Station
Aeroporto
Location: Richlands,
Altitude: 2651 ft
Estações Meteorológicas Próximas

Elev 2651 ft 37.06 °N, 81.80 °W | Updated 23 minutes ago

Céu Limpo
Céu Limpo
58 °F
Aparente 58 °F
N
9
Vento Variável Vento de OSO

Hoje
Máxima -- | Mínima -- °F
--% Possibilidade de Precip.
Ontem
Máxima -- | Mínima -- °F
Precip. -- pol
7:48 AM 6:38 PM
Quarto crescente, 6% visible
Pressão 29.97 pol
Visibilidade 10.0 milhas
Nuvens Céu Encoberto 1000 ft
Ponto de Orvalho 34 °F
Humidade 40%
Chuva 0.00 pol
Altura de Neve Não disponível
UV 0 em vez de 12
Pólen 1.20 em vez de 12
Qualidade do Ar Não disponível
Flu Activity Sporadic
METAR KJFZ 260715Z AUTO 25008KT 10SM OVC010 15/01 A2997 RMK AO2 T01460010

More Conditions Fewer Conditions

Pressão 29.97 pol
Visibilidade 10.0 milhas
Nuvens Céu Encoberto 1000 ft
Ponto de Orvalho 34 °F
Humidade 40%
Chuva 0.00 pol
Altura de Neve Não disponível
UV 0 em vez de 12
Pólen 1.20 em vez de 12
Qualidade do Ar Não disponível
Flu Activity Sporadic
METAR KJFZ 260715Z AUTO 25008KT 10SM OVC010 15/01 A2997 RMK AO2 T01460010

More Conditions Fewer Conditions

10-Day Weather Forecast

Almanac

Astronomia

Oct. 26, 2014 Nascer Pôr
Hora atual 07:48 EDT 18:38 EDT
Crepúsculo civil 07:21 EDT 19:05 EDT
Crepúsculo náutico 06:51 EDT 19:35 EDT
Crepúsculo astronómico 06:20 EDT 20:06 EDT
Lua 10:22 EDT 20:51 EDT
Comprimento da luz visível 11h 43m
Duração do Dia
10h 50m
Tomorrow will be 2m 11s shorter.
Quarto crescente, 6% of the Moon is Illuminated
Hoje
Quarto crescente
Out 30
Quarto crescente
Nov 6
Lua cheia
Nov 14
Quarto minguante
Nov 22
Nova

Extremos de Hoje

situação na parte mais alta situação na parte mais baixa

Community

WunderPhotos

Upload Photos

1,765,115 fotografias inseridas!

Nearby

Altura da Neve

Estação altura Altitude
Não há relatos de neve recente.

Actividade Sísmisca

Cidade Distância Mag. Hora & Data
Não há notícias de atividade sísmica recente perto de si.
Mínima magnitude apresentada é 2.5.

Temperaturas das Águas Costeiras

Local Temperatura
Não há estações a reportar dados

Estações Meteorológicas Próximas